This is the latest recevied weather packets stored in our database for station/object W3AJR. If no packets are shown the sender has not sent any weather packets the latest 10 day(s).
| Time | Temp. | Humidity | Pressure | Rain* | Wind** | Luminosity | Snow |
|---|---|---|---|---|---|---|---|
| 1777671791 | 19.44° C | 37% | 1009.2 hPa | 0 mm | - | 49 W/m² | - |
| 1777671488 | 19.44° C | 37% | 1009.2 hPa | 0 mm | - | 50 W/m² | - |
| 1777671184 | 19.44° C | 36% | 1009.5 hPa | 0 mm | - | 51 W/m² | - |
| 1777670880 | 19.44° C | 36% | 1009.5 hPa | 0 mm | - | 50 W/m² | - |
| 1777670576 | 19.44° C | 36% | 1009.2 hPa | 0 mm | - | 51 W/m² | - |
| 1777670274 | 19.44° C | 36% | 1009.3 hPa | 0 mm | - | 52 W/m² | - |
| 1777669970 | 20° C | 36% | 1009.6 hPa | 0 mm | - | 52 W/m² | - |
| 1777669668 | 20° C | 36% | 1009.6 hPa | 0 mm | - | 90 W/m² | - |
| 1777669364 | 20° C | 35% | 1009.4 hPa | 0 mm | - | 439 W/m² | - |
| 1777669060 | 20° C | 36% | 1009.7 hPa | 0 mm | - | 440 W/m² | - |
| 1777668758 | 19.44° C | 37% | 1009.8 hPa | 0 mm | - | 459 W/m² | - |
| 1777668454 | 20° C | 35% | 1009.8 hPa | 0 mm | - | 392 W/m² | - |
| 1777668151 | 20° C | 36% | 1009.8 hPa | 0 mm | - | 452 W/m² | - |
| 1777667847 | 20° C | 36% | 1009.7 hPa | 0 mm | - | 486 W/m² | - |
| 1777667545 | 20° C | 37% | 1009.9 hPa | 0 mm | - | 506 W/m² | - |
| 1777667242 | 20° C | 37% | 1010 hPa | 0 mm | - | 526 W/m² | - |
| 1777666939 | 19.44° C | 36% | 1010.1 hPa | 0 mm | - | 544 W/m² | - |
| 1777666635 | 20° C | 34% | 1010 hPa | 0 mm | - | 570 W/m² | - |
| 1777666332 | 20° C | 35% | 1010.3 hPa | 0 mm | - | 567 W/m² | - |
| 1777666029 | 19.44° C | 33% | 1010.1 hPa | 0 mm | - | 573 W/m² | - |
| 1777665726 | 20° C | 35% | 1010.5 hPa | 0 mm | - | 593 W/m² | - |
| 1777665424 | 19.44° C | 34% | 1010.2 hPa | 0 mm | - | 583 W/m² | - |
| 1777665120 | 19.44° C | 37% | 1010.8 hPa | 0 mm | - | 591 W/m² | - |
| 1777664815 | 20° C | 36% | 1010.3 hPa | 0 mm | - | 606 W/m² | - |
| 1777664510 | 19.44° C | 38% | 1010.6 hPa | 0 mm | - | 607 W/m² | - |
* Rain latest hour (hover to see other rain measurements)
** Current wind speed in m/s (hover to see current wind gust speed)